Time;durP1;ratioP1;P1;durP2;ratioP2;P2;SDS_P1;SDS_P2;PMS_P1;PMS_P2;Temp;Humidity;BMP_temperature;BMP_pressure;BME280_temperature;BME280_humidity;BME280_pressure;Samples;Min_cycle;Max_cycle;Signal;HPM_P1;HPM_P2
2021/06/12 00:01:51;;;;;;;1.13;1.02;;;23.50;53.70;;;;;;6263441;28;20024;-70
2021/06/12 00:04:52;;;;;;;1.40;1.20;;;23.50;53.70;;;;;;6253595;28;20057;-70
2021/06/12 00:07:53;;;;;;;1.13;1.02;;;23.50;53.70;;;;;;6261802;28;20040;-70
2021/06/12 00:10:54;;;;;;;1.20;1.10;;;23.50;53.70;;;;;;6263255;28;20024;-70
2021/06/12 00:13:54;;;;;;;1.38;1.27;;;23.50;53.70;;;;;;6262386;28;20401;-70
2021/06/12 00:16:55;;;;;;;1.13;1.02;;;23.50;53.70;;;;;;6268041;28;20029;-70
2021/06/12 00:19:55;;;;;;;1.20;1.10;;;23.50;53.70;;;;;;6267539;28;20037;-70
2021/06/12 00:22:56;;;;;;;1.20;1.10;;;23.50;53.70;;;;;;6267386;28;20083;-70
2021/06/12 00:25:57;;;;;;;1.17;1.08;;;23.50;53.70;;;;;;6267361;28;20041;-71
2021/06/12 00:28:58;;;;;;;1.15;0.93;;;23.50;53.70;;;;;;6267891;28;20032;-70
2021/06/12 00:31:58;;;;;;;1.35;0.93;;;23.50;53.70;;;;;;6267108;28;20420;-70
2021/06/12 00:34:59;;;;;;;1.65;1.25;;;23.50;53.70;;;;;;6267664;28;20539;-70
2021/06/12 00:37:59;;;;;;;1.08;0.85;;;23.50;54.30;;;;;;6267744;28;20543;-71
2021/06/12 00:41:00;;;;;;;1.08;0.98;;;23.50;53.70;;;;;;6267485;28;20527;-70
2021/06/12 00:44:00;;;;;;;0.98;0.93;;;23.50;54.40;;;;;;6267328;28;20017;-70
2021/06/12 00:47:01;;;;;;;1.20;1.10;;;23.50;53.70;;;;;;6266628;28;20495;-70
2021/06/12 00:50:02;;;;;;;0.80;0.80;;;23.50;53.70;;;;;;6265418;28;20343;-70
2021/06/12 00:53:03;;;;;;;1.10;1.00;;;23.50;53.70;;;;;;6250509;28;20471;-70
2021/06/12 00:56:06;;;;;;;1.20;1.10;;;23.50;53.70;;;;;;6253291;28;20045;-70
2021/06/12 00:59:07;;;;;;;1.10;1.00;;;23.50;53.70;;;;;;6266890;28;20108;-70
2021/06/12 01:02:07;;;;;;;1.23;1.00;;;23.50;53.70;;;;;;6266542;28;20036;-70
2021/06/12 01:05:10;;;;;;;1.15;0.93;;;23.50;53.70;;;;;;6248428;28;20025;-70
2021/06/12 01:08:11;;;;;;;1.10;1.00;;;23.50;53.70;;;;;;6249291;28;20013;-70
2021/06/12 01:11:13;;;;;;;1.10;1.00;;;23.50;53.70;;;;;;6266399;28;20029;-70
2021/06/12 01:14:21;;;;;;;1.63;1.20;;;23.50;53.70;;;;;;6263371;28;20037;-70
2021/06/12 01:17:37;;;;;;;1.25;1.15;;;23.50;53.70;;;;;;6260534;28;20468;-70
2021/06/12 01:20:59;;;;;;;1.10;0.90;;;23.50;53.70;;;;;;6255481;28;20072;-70
2021/06/12 01:24:37;;;;;;;1.27;1.00;;;23.50;53.70;;;;;;6245785;28;20411;-70
2021/06/12 01:27:40;;;;;;;1.20;1.10;;;23.50;53.70;;;;;;6265064;28;20041;-70
2021/06/12 01:30:42;;;;;;;1.15;0.90;;;23.50;53.70;;;;;;6266376;28;20078;-70
2021/06/12 01:33:46;;;;;;;1.23;1.10;;;23.50;53.70;;;;;;6240664;28;20483;-70
2021/06/12 01:36:47;;;;;;;1.23;1.08;;;23.50;53.70;;;;;;6263552;28;20399;-70
2021/06/12 01:39:50;;;;;;;1.48;1.10;;;23.50;53.80;;;;;;6265962;28;20025;-71
2021/06/12 01:42:53;;;;;;;1.20;1.10;;;23.50;53.80;;;;;;6248426;28;20672;-70
2021/06/12 01:45:54;;;;;;;1.20;1.10;;;23.50;53.80;;;;;;6262352;28;20164;-70
2021/06/12 01:48:58;;;;;;;1.52;1.10;;;23.50;53.70;;;;;;6260513;28;20085;-70
2021/06/12 01:52:00;;;;;;;1.13;1.02;;;23.50;53.80;;;;;;6252804;28;20036;-70
2021/06/12 01:55:01;;;;;;;1.10;0.95;;;23.50;53.80;;;;;;6248685;28;20594;-71
2021/06/12 01:58:05;;;;;;;1.27;1.10;;;23.50;53.70;;;;;;6244055;28;20713;-70
2021/06/12 02:01:08;;;;;;;0.95;0.95;;;23.50;53.80;;;;;;6261934;28;20093;-70
2021/06/12 02:04:10;;;;;;;1.00;0.90;;;23.50;53.80;;;;;;6263131;28;20032;-70
2021/06/12 02:07:12;;;;;;;1.10;1.00;;;23.50;53.80;;;;;;6265383;28;20045;-70
2021/06/12 02:10:16;;;;;;;1.48;1.23;;;23.50;53.80;;;;;;6249563;28;20025;-71
2021/06/12 02:13:19;;;;;;;1.20;1.10;;;23.50;53.80;;;;;;6257176;28;20091;-70
2021/06/12 02:16:25;;;;;;;1.10;1.00;;;23.50;53.80;;;;;;6263522;28;20052;-70
2021/06/12 02:19:26;;;;;;;1.30;1.10;;;23.50;53.70;;;;;;6265225;28;20025;-70
2021/06/12 02:22:28;;;;;;;1.05;0.95;;;23.50;53.80;;;;;;6232697;28;20060;-70
2021/06/12 02:25:29;;;;;;;1.40;1.30;;;23.50;53.70;;;;;;6262739;28;20325;-70
2021/06/12 02:28:35;;;;;;;1.05;0.95;;;23.50;53.80;;;;;;6258036;28;20049;-70
2021/06/12 02:31:50;;;;;;;1.55;1.33;;;23.50;53.80;;;;;;6242351;28;20024;-70
2021/06/12 02:34:51;;;;;;;;;;;23.50;53.80;;;;;;6242395;28;20531;-70
2021/06/12 02:37:53;;;;;;;1.23;1.13;;;23.50;53.80;;;;;;6258239;28;19905;-70
2021/06/12 02:40:55;;;;;;;1.45;0.90;;;23.50;53.80;;;;;;6260914;28;20025;-70
2021/06/12 02:43:55;;;;;;;1.38;1.10;;;23.50;53.80;;;;;;6261480;28;20035;-70
2021/06/12 02:47:00;;;;;;;0.98;0.90;;;23.50;54.40;;;;;;6264639;28;20057;-70
2021/06/12 02:50:03;;;;;;;1.20;1.10;;;23.50;53.80;;;;;;6257576;28;20021;-71
2021/06/12 02:53:09;;;;;;;1.20;1.05;;;23.50;53.80;;;;;;6226208;28;20029;-70
2021/06/12 02:56:14;;;;;;;1.33;1.13;;;23.50;53.80;;;;;;6263047;28;20060;-70
2021/06/12 02:59:18;;;;;;;1.25;1.10;;;23.50;53.80;;;;;;6264330;28;20036;-70
2021/06/12 03:02:20;;;;;;;1.58;1.00;;;23.50;53.80;;;;;;6263490;28;20303;-70
2021/06/12 03:05:26;;;;;;;1.13;1.00;;;23.50;53.80;;;;;;6262629;28;20133;-70
2021/06/12 03:08:36;;;;;;;1.10;1.00;;;23.50;53.80;;;;;;6263650;28;20056;-70
2021/06/12 03:11:37;;;;;;;1.30;1.10;;;23.50;53.80;;;;;;6263272;28;20086;-70
2021/06/12 03:14:40;;;;;;;1.40;1.08;;;23.50;53.80;;;;;;6258503;28;20049;-70
2021/06/12 03:17:47;;;;;;;1.45;1.30;;;23.50;53.80;;;;;;6263598;28;20560;-70
2021/06/12 03:20:48;;;;;;;1.20;1.10;;;23.50;53.80;;;;;;6262748;28;20021;-70
2021/06/12 03:23:50;;;;;;;0.80;0.80;;;23.50;53.80;;;;;;6262588;28;20021;-70
2021/06/12 03:26:52;;;;;;;1.73;1.13;;;23.50;53.80;;;;;;6263743;28;20515;-70
2021/06/12 03:29:53;;;;;;;1.10;0.98;;;23.50;53.80;;;;;;6262267;28;20025;-71
2021/06/12 03:32:54;;;;;;;1.20;1.10;;;23.50;53.80;;;;;;6259566;28;20033;-70
2021/06/12 03:35:55;;;;;;;0.90;0.90;;;23.50;53.80;;;;;;6262930;28;20021;-70
2021/06/12 03:38:56;;;;;;;0.90;0.80;;;23.50;53.80;;;;;;6261754;28;20261;-70
2021/06/12 03:41:57;;;;;;;1.13;1.02;;;23.50;53.80;;;;;;6262562;28;20029;-71
2021/06/12 03:45:03;;;;;;;0.98;0.90;;;23.50;53.80;;;;;;6263382;28;20083;-70
2021/06/12 03:48:05;;;;;;;1.20;1.10;;;23.50;53.80;;;;;;6258196;28;20041;-70
2021/06/12 03:51:08;;;;;;;1.73;1.20;;;23.50;53.80;;;;;;6256766;28;20025;-70
2021/06/12 03:54:09;;;;;;;1.05;0.95;;;23.50;53.80;;;;;;6258071;28;20098;-70
2021/06/12 03:57:10;;;;;;;1.48;1.00;;;23.50;53.80;;;;;;6267738;28;20053;-70
2021/06/12 04:00:35;;;;;;;1.08;0.93;;;23.50;53.80;;;;;;6262125;28;20035;-71
2021/06/12 04:03:36;;;;;;;1.10;1.00;;;23.50;53.80;;;;;;6251296;28;20112;-70
2021/06/12 04:06:36;;;;;;;1.10;1.00;;;23.50;53.80;;;;;;6265092;28;20045;-70
2021/06/12 04:09:37;;;;;;;1.20;1.10;;;23.50;53.90;;;;;;6266728;28;20025;-70
2021/06/12 04:12:37;;;;;;;1.15;1.05;;;23.50;53.80;;;;;;6258797;28;20108;-70
2021/06/12 04:15:38;;;;;;;1.00;0.90;;;23.50;53.80;;;;;;6249942;28;20033;-70
2021/06/12 04:18:38;;;;;;;0.88;0.82;;;23.50;53.80;;;;;;6264685;28;20029;-69
2021/06/12 04:21:39;;;;;;;1.10;0.90;;;23.50;53.80;;;;;;6264341;28;20029;-70
2021/06/12 04:24:39;;;;;;;1.13;1.02;;;23.50;53.80;;;;;;6264973;28;20045;-70
2021/06/12 04:27:40;;;;;;;1.15;0.98;;;23.50;53.80;;;;;;6267399;28;20303;-71
2021/06/12 04:30:41;;;;;;;1.10;1.00;;;23.50;53.80;;;;;;6267489;28;20025;-70
2021/06/12 04:33:41;;;;;;;1.10;1.00;;;23.50;53.80;;;;;;6254824;28;20491;-70
2021/06/12 04:36:42;;;;;;;1.02;0.95;;;23.50;53.80;;;;;;6256326;28;20031;-70
2021/06/12 04:39:42;;;;;;;1.20;1.08;;;23.50;53.80;;;;;;6264335;28;20675;-70
2021/06/12 04:42:43;;;;;;;0.90;0.90;;;23.50;53.90;;;;;;6263676;28;20128;-70
2021/06/12 04:45:43;;;;;;;1.25;1.10;;;23.50;53.80;;;;;;6264542;28;20040;-70
2021/06/12 04:48:44;;;;;;;1.00;0.90;;;23.50;53.80;;;;;;6263908;28;20440;-70
2021/06/12 04:51:44;;;;;;;1.00;0.90;;;23.50;53.90;;;;;;6260171;28;20025;-70
2021/06/12 04:54:45;;;;;;;1.00;0.90;;;23.50;53.80;;;;;;6231178;28;20020;-70
2021/06/12 04:57:45;;;;;;;2.58;1.10;;;23.50;53.80;;;;;;6263122;28;20056;-71
2021/06/12 05:00:48;;;;;;;1.30;0.93;;;23.50;53.90;;;;;;6265816;28;20028;-70
2021/06/12 05:03:49;;;;;;;0.82;0.82;;;23.50;53.90;;;;;;6224438;28;20610;-70
2021/06/12 05:06:49;;;;;;;1.00;0.90;;;23.50;53.80;;;;;;6266571;28;20076;-70
2021/06/12 05:09:50;;;;;;;1.70;1.00;;;23.50;53.90;;;;;;6266711;28;20028;-70
2021/06/12 05:12:51;;;;;;;1.00;0.90;;;23.50;53.90;;;;;;6266351;28;20037;-70
2021/06/12 05:15:51;;;;;;;0.88;0.88;;;23.50;53.80;;;;;;6266240;28;20028;-70
2021/06/12 05:18:52;;;;;;;1.13;1.00;;;23.50;53.80;;;;;;6266612;28;20091;-70
2021/06/12 05:21:52;;;;;;;1.63;1.10;;;23.50;53.80;;;;;;6266282;28;20068;-70
2021/06/12 05:24:55;;;;;;;0.82;0.80;;;23.50;53.80;;;;;;6265296;28;20242;-70
2021/06/12 05:27:56;;;;;;;0.95;0.85;;;23.50;53.80;;;;;;6265887;28;20530;-70
2021/06/12 05:30:57;;;;;;;0.95;0.88;;;23.50;53.90;;;;;;6266738;28;20052;-70
2021/06/12 05:33:58;;;;;;;1.20;1.00;;;23.50;53.90;;;;;;6266404;28;20325;-70
2021/06/12 05:36:59;;;;;;;0.95;0.90;;;23.50;53.90;;;;;;6265708;28;20145;-70
2021/06/12 05:40:00;;;;;;;1.00;0.90;;;23.50;53.90;;;;;;6267056;28;20294;-70
2021/06/12 05:43:00;;;;;;;0.95;0.90;;;23.50;53.90;;;;;;6265585;28;20479;-70
2021/06/12 05:46:02;;;;;;;1.60;1.05;;;23.50;53.90;;;;;;6265941;28;20033;-70
2021/06/12 05:49:02;;;;;;;1.17;1.08;;;23.50;53.90;;;;;;6261232;28;20033;-70
2021/06/12 05:52:03;;;;;;;1.45;1.10;;;23.50;53.80;;;;;;6249715;28;20081;-70
2021/06/12 05:55:04;;;;;;;1.05;0.95;;;23.50;53.80;;;;;;6258136;28;20055;-70
2021/06/12 05:58:05;;;;;;;1.10;1.00;;;23.50;53.90;;;;;;6265593;28;20021;-70
2021/06/12 06:01:08;;;;;;;0.73;0.73;;;23.50;53.90;;;;;;6265645;28;20118;-70
2021/06/12 06:04:08;;;;;;;0.88;0.82;;;23.50;53.90;;;;;;6263377;28;20037;-70
2021/06/12 06:07:09;;;;;;;1.42;0.98;;;23.50;53.80;;;;;;6262055;28;20041;-70
2021/06/12 06:10:10;;;;;;;1.00;0.90;;;23.50;53.90;;;;;;6261835;28;20056;-70
2021/06/12 06:13:10;;;;;;;0.82;0.80;;;23.50;53.80;;;;;;6256857;28;20571;-70
2021/06/12 06:16:12;;;;;;;1.13;1.02;;;23.50;53.90;;;;;;6263512;28;20060;-70
2021/06/12 06:19:13;;;;;;;0.82;0.82;;;23.50;53.90;;;;;;6265360;28;20033;-70
2021/06/12 06:22:14;;;;;;;1.10;1.00;;;23.50;53.90;;;;;;6265170;28;20045;-70
2021/06/12 06:25:15;;;;;;;0.98;0.82;;;23.50;53.90;;;;;;6265540;28;20032;-70
2021/06/12 06:28:16;;;;;;;0.95;0.90;;;23.50;54.00;;;;;;6264638;28;20041;-70
2021/06/12 06:31:16;;;;;;;1.38;0.90;;;23.50;53.90;;;;;;6264669;28;20096;-70
2021/06/12 06:34:17;;;;;;;1.02;0.90;;;23.50;53.90;;;;;;6253892;28;20029;-70
2021/06/12 06:37:17;;;;;;;1.23;1.00;;;23.50;53.90;;;;;;6264565;28;20027;-70
2021/06/12 06:40:18;;;;;;;0.98;0.90;;;23.50;53.90;;;;;;6259690;28;20503;-70
2021/06/12 06:43:19;;;;;;;0.73;0.70;;;23.50;53.90;;;;;;6261525;28;20310;-70
2021/06/12 06:46:19;;;;;;;1.08;0.90;;;23.50;53.90;;;;;;6263916;28;20422;-70
2021/06/12 06:49:20;;;;;;;0.90;0.90;;;23.50;53.90;;;;;;6264818;28;20068;-71
2021/06/12 06:52:21;;;;;;;1.05;0.85;;;23.50;53.90;;;;;;6249149;28;20060;-70
2021/06/12 06:55:21;;;;;;;1.02;0.88;;;23.50;53.90;;;;;;6260735;28;20025;-70
2021/06/12 06:58:22;;;;;;;1.23;1.00;;;23.50;53.90;;;;;;6264546;28;20480;-70
2021/06/12 07:01:22;;;;;;;1.33;1.00;;;23.50;53.90;;;;;;6252546;28;20021;-71
2021/06/12 07:04:22;;;;;;;0.80;0.80;;;23.50;53.90;;;;;;6236685;28;20022;-71
2021/06/12 07:07:23;;;;;;;1.00;0.88;;;23.50;53.90;;;;;;6262733;28;20043;-70
2021/06/12 07:10:24;;;;;;;1.00;0.90;;;23.50;53.90;;;;;;6264110;28;20316;-70
2021/06/12 07:13:25;;;;;;;0.93;0.90;;;23.50;53.90;;;;;;6252405;28;20056;-70
2021/06/12 07:16:25;;;;;;;0.82;0.77;;;23.50;53.90;;;;;;6246819;28;20068;-70
2021/06/12 07:19:26;;;;;;;1.08;0.98;;;23.50;53.90;;;;;;6257604;28;20029;-70
2021/06/12 07:22:27;;;;;;;0.80;0.80;;;23.50;53.90;;;;;;6251642;28;20021;-70
2021/06/12 07:25:28;;;;;;;0.95;0.90;;;23.50;53.90;;;;;;6263545;28;20024;-70
2021/06/12 07:28:28;;;;;;;0.80;0.80;;;23.50;53.90;;;;;;6262931;28;20025;-70
2021/06/12 07:31:29;;;;;;;1.30;0.90;;;23.50;53.90;;;;;;6263332;28;20045;-71
2021/06/12 07:34:30;;;;;;;0.82;0.82;;;23.50;53.90;;;;;;6260675;28;20061;-71
2021/06/12 07:37:30;;;;;;;0.88;0.80;;;23.50;53.90;;;;;;6260543;28;20036;-70
2021/06/12 07:40:31;;;;;;;1.00;0.90;;;23.50;53.90;;;;;;6262588;28;20454;-71
2021/06/12 07:43:31;;;;;;;1.20;1.00;;;23.50;53.90;;;;;;6247553;28;20025;-70
2021/06/12 07:46:33;;;;;;;0.93;0.85;;;23.50;53.90;;;;;;6246507;28;20035;-70
2021/06/12 07:49:33;;;;;;;1.20;0.93;;;23.50;53.90;;;;;;6246301;28;20468;-70
2021/06/12 07:52:34;;;;;;;1.10;1.00;;;23.50;53.90;;;;;;6243567;28;20057;-70
2021/06/12 07:55:35;;;;;;;1.00;0.90;;;23.50;53.90;;;;;;6262794;28;20036;-70
2021/06/12 07:58:36;;;;;;;1.00;0.90;;;23.50;53.90;;;;;;6263146;28;20021;-70
2021/06/12 08:01:36;;;;;;;0.93;0.80;;;23.50;53.90;;;;;;6256249;28;20503;-70
2021/06/12 08:04:37;;;;;;;1.08;0.85;;;23.50;53.90;;;;;;6246911;28;20374;-70
2021/06/12 08:07:37;;;;;;;1.15;0.80;;;23.50;53.90;;;;;;6253072;28;20040;-71
2021/06/12 08:10:38;;;;;;;1.10;1.00;;;23.50;53.90;;;;;;6256776;28;20262;-70
2021/06/12 08:13:38;;;;;;;1.10;1.00;;;23.50;53.90;;;;;;6247330;28;20053;-70
2021/06/12 08:16:39;;;;;;;1.02;0.93;;;23.50;53.90;;;;;;6247450;28;20029;-70
2021/06/12 08:19:40;;;;;;;0.98;0.90;;;23.50;54.60;;;;;;6260462;28;20079;-70
2021/06/12 08:22:41;;;;;;;1.48;0.80;;;23.50;53.90;;;;;;6254695;28;20026;-70
2021/06/12 08:25:43;;;;;;;0.80;0.80;;;23.50;53.90;;;;;;6251875;28;20483;-70
2021/06/12 08:28:43;;;;;;;1.10;1.00;;;23.50;53.90;;;;;;6259285;28;20056;-70
2021/06/12 08:31:44;;;;;;;0.93;0.90;;;23.50;53.90;;;;;;6262588;28;20024;-71
2021/06/12 08:34:45;;;;;;;0.80;0.80;;;23.50;53.90;;;;;;6245972;28;20026;-70
2021/06/12 08:37:45;;;;;;;1.20;1.08;;;23.50;53.90;;;;;;6260932;28;20029;-70
2021/06/12 08:40:48;;;;;;;0.80;0.80;;;23.50;53.90;;;;;;6248705;28;20324;-70
2021/06/12 08:43:49;;;;;;;0.75;0.75;;;23.50;53.90;;;;;;6267296;28;20036;-70
2021/06/12 08:46:50;;;;;;;1.05;0.90;;;23.50;53.90;;;;;;6266778;28;20032;-70
2021/06/12 08:49:52;;;;;;;0.90;0.85;;;23.50;53.90;;;;;;6250269;28;20041;-71
2021/06/12 08:52:55;;;;;;;0.90;0.90;;;23.50;53.90;;;;;;6248352;28;20018;-70
2021/06/12 08:55:55;;;;;;;1.00;0.80;;;23.50;53.90;;;;;;6241863;28;20029;-70
2021/06/12 08:58:56;;;;;;;1.25;0.98;;;23.50;53.90;;;;;;6254905;28;20036;-70
2021/06/12 09:01:57;;;;;;;0.95;0.70;;;23.50;53.90;;;;;;6248175;28;20026;-70
2021/06/12 09:04:57;;;;;;;1.40;1.10;;;23.50;53.90;;;;;;6266863;28;20419;-71
2021/06/12 09:08:06;;;;;;;1.15;0.95;;;23.50;53.90;;;;;;6266333;28;20384;-70
2021/06/12 09:11:12;;;;;;;1.17;1.08;;;23.50;53.90;;;;;;6258462;28;20037;-70
2021/06/12 09:14:14;;;;;;;0.90;0.80;;;23.50;53.90;;;;;;6254428;28;20110;-70
2021/06/12 09:17:15;;;;;;;1.02;0.90;;;23.50;53.90;;;;;;6258867;28;20067;-70
2021/06/12 09:20:37;;;;;;;1.08;0.98;;;23.50;53.90;;;;;;6258727;28;20291;-71
2021/06/12 09:23:42;;;;;;;1.02;0.93;;;23.50;53.90;;;;;;6242995;28;20084;-70
2021/06/12 09:26:46;;;;;;;0.93;0.82;;;23.50;53.90;;;;;;6215891;28;20408;-70
2021/06/12 09:29:50;;;;;;;0.73;0.70;;;23.50;53.90;;;;;;6240874;28;20064;-70
2021/06/12 09:32:50;;;;;;;1.02;1.00;;;23.50;53.90;;;;;;6239804;28;20057;-70
2021/06/12 09:35:51;;;;;;;0.95;0.90;;;23.50;53.90;;;;;;6253076;28;20071;-70
2021/06/12 09:38:51;;;;;;;0.77;0.77;;;23.50;53.90;;;;;;6255688;28;20037;-70
2021/06/12 09:41:54;;;;;;;1.10;1.00;;;23.50;53.90;;;;;;6251112;28;20036;-69
2021/06/12 09:45:03;;;;;;;0.90;0.73;;;23.50;53.90;;;;;;6246105;28;20250;-70
2021/06/12 09:48:15;;;;;;;1.23;0.90;;;23.50;53.90;;;;;;6240285;28;20032;-70
2021/06/12 09:51:15;;;;;;;1.02;0.90;;;23.50;53.90;;;;;;6246535;28;20477;-70
2021/06/12 09:54:16;;;;;;;0.80;0.70;;;23.50;54.00;;;;;;6238713;28;20052;-70
2021/06/12 09:57:22;;;;;;;1.10;0.90;;;23.50;53.90;;;;;;6246931;28;20033;-70
2021/06/12 10:00:43;;;;;;;0.95;0.88;;;23.50;54.00;;;;;;6242729;28;20028;-70
2021/06/12 10:03:44;;;;;;;0.90;0.90;;;23.50;53.90;;;;;;6238763;28;20463;-70
2021/06/12 10:06:45;;;;;;;1.20;1.08;;;23.50;53.90;;;;;;6249424;28;20037;-70
2021/06/12 10:09:46;;;;;;;1.15;1.05;;;23.50;53.90;;;;;;6247991;28;20533;-71
2021/06/12 10:12:46;;;;;;;0.82;0.82;;;23.50;53.90;;;;;;6262310;28;20507;-70
2021/06/12 10:15:48;;;;;;;1.00;0.90;;;23.50;54.00;;;;;;6246191;28;20060;-70
2021/06/12 10:18:52;;;;;;;1.08;0.98;;;23.50;53.90;;;;;;6237096;28;20470;-70
2021/06/12 10:21:53;;;;;;;0.75;0.75;;;23.50;53.90;;;;;;6237449;28;20045;-70
2021/06/12 10:24:54;;;;;;;1.00;0.90;;;23.50;54.00;;;;;;6241228;28;20037;-70
2021/06/12 10:27:55;;;;;;;0.90;0.80;;;23.50;54.00;;;;;;6249587;28;20029;-70
2021/06/12 10:30:57;;;;;;;1.10;1.00;;;23.50;53.90;;;;;;6248105;28;20108;-71
2021/06/12 10:33:58;;;;;;;1.30;0.93;;;23.60;54.10;;;;;;6258448;28;20057;-70
2021/06/12 10:36:58;;;;;;;1.20;1.10;;;23.60;54.10;;;;;;6259636;28;20390;-70
2021/06/12 10:40:04;;;;;;;1.50;1.00;;;23.60;54.10;;;;;;6263041;28;20036;-70
2021/06/12 10:43:06;;;;;;;2.60;1.20;;;23.60;54.10;;;;;;6261018;28;20064;-70
2021/06/12 10:46:07;;;;;;;3.83;1.10;;;23.60;54.10;;;;;;6243525;28;20087;-70
2021/06/12 10:49:07;;;;;;;1.50;0.85;;;23.60;54.10;;;;;;6255786;28;20061;-70
2021/06/12 10:52:08;;;;;;;2.72;1.20;;;23.60;54.10;;;;;;6245753;28;20017;-70
2021/06/12 10:55:39;;;;;;;3.05;1.10;;;23.60;54.10;;;;;;6254989;28;20029;-69
2021/06/12 10:58:45;;;;;;;1.92;1.00;;;23.60;54.10;;;;;;6251131;28;20107;-70
2021/06/12 11:02:06;;;;;;;1.63;1.10;;;23.60;54.10;;;;;;6244022;28;20417;-70
2021/06/12 11:05:09;;;;;;;4.07;0.95;;;23.60;54.10;;;;;;6239299;28;20082;-70
2021/06/12 11:08:15;;;;;;;5.30;1.20;;;23.60;54.10;;;;;;6262225;28;20043;-71
2021/06/12 11:11:31;;;;;;;1.65;1.20;;;23.60;54.10;;;;;;6259053;28;20025;-70
2021/06/12 11:14:34;;;;;;;1.67;1.02;;;23.60;54.10;;;;;;6210137;28;20075;-70
2021/06/12 11:17:35;;;;;;;4.53;1.20;;;23.60;54.10;;;;;;6241738;28;20033;-70
2021/06/12 11:20:37;;;;;;;5.25;1.10;;;23.60;54.10;;;;;;6236822;28;20432;-70
2021/06/12 11:23:44;;;;;;;3.60;1.30;;;23.60;54.10;;;;;;6239392;28;20074;-70
2021/06/12 11:26:57;;;;;;;5.43;1.65;;;23.60;54.10;;;;;;6261532;28;20033;-70
2021/06/12 11:30:16;;;;;;;2.65;1.20;;;23.60;54.10;;;;;;6248955;28;20082;-69
2021/06/12 11:33:17;;;;;;;3.38;1.30;;;23.60;54.10;;;;;;6253756;28;20388;-70
2021/06/12 11:36:25;;;;;;;2.67;1.15;;;23.60;54.10;;;;;;6242975;28;20021;-70
2021/06/12 11:39:25;;;;;;;2.42;1.13;;;23.60;54.10;;;;;;6252886;28;20032;-70
2021/06/12 11:42:43;;;;;;;4.82;1.27;;;23.60;54.10;;;;;;6223938;28;20110;-70
2021/06/12 11:45:46;;;;;;;2.28;1.40;;;23.60;54.10;;;;;;6259699;28;20158;-70
2021/06/12 11:48:49;;;;;;;1.73;0.90;;;23.60;54.20;;;;;;6242559;28;20029;-70
2021/06/12 11:51:49;;;;;;;2.95;1.05;;;23.60;54.20;;;;;;6255124;28;20036;-70
2021/06/12 11:54:50;;;;;;;1.73;1.20;;;23.60;54.10;;;;;;6254446;28;20056;-70
2021/06/12 11:57:52;;;;;;;6.78;1.60;;;23.60;54.10;;;;;;6259725;28;20048;-70
2021/06/12 12:00:53;;;;;;;4.68;1.80;;;23.60;54.30;;;;;;6251579;28;20037;-70
2021/06/12 12:03:54;;;;;;;8.68;2.47;;;23.60;54.80;;;;;;6256292;28;20418;-70
2021/06/12 12:06:56;;;;;;;2.85;1.77;;;23.50;55.00;;;;;;6261130;28;20033;-70
2021/06/12 12:09:58;;;;;;;3.67;1.80;;;23.50;54.80;;;;;;6241089;28;20151;-70
2021/06/12 12:12:59;;;;;;;5.38;2.17;;;23.50;54.90;;;;;;6251142;28;20068;-70
2021/06/12 12:16:03;;;;;;;9.73;2.42;;;23.50;54.90;;;;;;6266529;28;20383;-70
2021/06/12 12:19:04;;;;;;;9.93;2.33;;;23.50;55.10;;;;;;6257033;28;20045;-70
2021/06/12 12:22:04;;;;;;;6.72;3.08;;;23.50;55.20;;;;;;6261204;28;20044;-70
2021/06/12 12:25:08;;;;;;;3.63;2.33;;;23.50;55.30;;;;;;6249596;28;20025;-70
2021/06/12 12:28:09;;;;;;;13.65;3.35;;;23.40;55.20;;;;;;6252643;28;20039;-70
2021/06/12 12:31:09;;;;;;;5.35;2.60;;;23.40;55.60;;;;;;6255534;28;20063;-70
2021/06/12 12:34:10;;;;;;;3.92;2.20;;;23.40;55.50;;;;;;6247314;28;20021;-70
2021/06/12 12:37:21;;;;;;;6.35;2.30;;;23.40;55.30;;;;;;6261606;28;20108;-70
2021/06/12 12:40:23;;;;;;;6.15;2.20;;;23.40;55.80;;;;;;6259984;28;20049;-70
2021/06/12 12:43:23;;;;;;;5.47;1.65;;;23.40;55.70;;;;;;6251803;28;20021;-70
2021/06/12 12:46:24;;;;;;;7.25;1.92;;;23.40;56.10;;;;;;6248176;28;20190;-70
2021/06/12 12:49:29;;;;;;;3.20;1.73;;;23.40;55.80;;;;;;6260416;28;20037;-70
2021/06/12 12:52:30;;;;;;;8.52;1.92;;;23.40;56.20;;;;;;6258466;28;20235;-70
2021/06/12 12:55:31;;;;;;;10.95;1.98;;;23.40;56.70;;;;;;6259705;28;20491;-70
2021/06/12 12:58:31;;;;;;;7.18;2.33;;;23.30;57.00;;;;;;6260516;28;20021;-71
2021/06/12 13:01:32;;;;;;;8.75;2.30;;;23.30;56.80;;;;;;6245977;28;20230;-69
2021/06/12 13:04:34;;;;;;;5.13;1.92;;;23.30;57.40;;;;;;6257585;28;20063;-69
2021/06/12 13:07:36;;;;;;;4.68;1.90;;;23.40;56.80;;;;;;6248088;28;20119;-69
2021/06/12 13:10:40;;;;;;;4.32;2.30;;;23.40;56.50;;;;;;6264190;28;20032;-70
2021/06/12 13:13:41;;;;;;;3.35;1.77;;;23.40;56.60;;;;;;6259820;28;20199;-70
2021/06/12 13:16:41;;;;;;;5.40;2.03;;;23.40;56.60;;;;;;6262742;28;20041;-69
2021/06/12 13:19:49;;;;;;;3.85;2.00;;;23.40;56.40;;;;;;6253413;28;20033;-70
2021/06/12 13:22:50;;;;;;;3.95;1.88;;;23.40;56.30;;;;;;6258272;28;20033;-70
2021/06/12 13:26:22;;;;;;;5.20;2.10;;;23.40;56.20;;;;;;6251801;28;20022;-70
2021/06/12 13:29:28;;;;;;;4.82;2.05;;;23.40;55.80;;;;;;6245373;28;20507;-69
2021/06/12 13:32:29;;;;;;;4.63;2.33;;;23.40;55.80;;;;;;6239666;28;20025;-70
2021/06/12 13:35:32;;;;;;;7.10;2.00;;;23.30;55.80;;;;;;6255456;28;20048;-69
2021/06/12 13:38:36;;;;;;;3.85;2.65;;;23.30;56.10;;;;;;6245813;28;20017;-69
2021/06/12 13:41:37;;;;;;;3.28;2.17;;;23.30;56.00;;;;;;6250290;28;20029;-69
2021/06/12 13:44:38;;;;;;;7.18;2.83;;;23.30;55.90;;;;;;6259676;28;20037;-70
2021/06/12 13:47:40;;;;;;;5.20;2.38;;;23.30;56.00;;;;;;6255596;28;20037;-69
2021/06/12 13:50:41;;;;;;;4.13;2.00;;;23.30;55.80;;;;;;6245054;28;20067;-69
2021/06/12 13:53:46;;;;;;;4.00;2.33;;;23.40;56.60;;;;;;6250978;28;20521;-70
2021/06/12 13:56:47;;;;;;;5.53;2.25;;;23.30;55.90;;;;;;6263162;28;20036;-70
2021/06/12 13:59:48;;;;;;;6.60;2.90;;;23.30;56.00;;;;;;6263635;28;20512;-70
2021/06/12 14:02:48;;;;;;;8.55;2.92;;;23.30;56.30;;;;;;6236401;28;20033;-69
2021/06/12 14:05:49;;;;;;;5.97;2.83;;;23.30;56.60;;;;;;6252078;28;20037;-70
2021/06/12 14:08:49;;;;;;;5.25;2.40;;;23.30;56.80;;;;;;6263780;28;20682;-69
2021/06/12 14:11:50;;;;;;;8.15;3.03;;;23.30;56.60;;;;;;6262865;28;20025;-70
2021/06/12 14:14:50;;;;;;;3.45;2.50;;;23.30;56.60;;;;;;6258015;28;20135;-69
2021/06/12 14:17:51;;;;;;;4.43;2.42;;;23.30;56.30;;;;;;6256167;28;20484;-70
2021/06/12 14:20:51;;;;;;;15.18;2.75;;;23.30;55.80;;;;;;6246690;28;20059;-69
2021/06/12 14:23:52;;;;;;;5.15;2.53;;;23.30;55.20;;;;;;6251352;28;20025;-69
2021/06/12 14:26:54;;;;;;;6.10;2.15;;;23.30;55.10;;;;;;6253537;28;20575;-69
2021/06/12 14:29:54;;;;;;;5.03;2.70;;;23.30;54.90;;;;;;6241719;28;20109;-69
2021/06/12 14:32:55;;;;;;;6.78;2.15;;;23.30;54.70;;;;;;6227161;28;20025;-69
2021/06/12 14:35:56;;;;;;;4.85;2.33;;;23.30;54.60;;;;;;6262509;28;20029;-70
2021/06/12 14:38:56;;;;;;;8.43;2.40;;;23.30;54.60;;;;;;6249168;28;20407;-69
2021/06/12 14:41:57;;;;;;;5.78;2.30;;;23.30;54.30;;;;;;6255899;28;20363;-69
2021/06/12 14:44:58;;;;;;;5.88;2.38;;;23.30;54.10;;;;;;6263200;28;20036;-70
2021/06/12 14:47:58;;;;;;;9.40;2.30;;;23.30;54.10;;;;;;6252120;28;20041;-70
2021/06/12 14:50:59;;;;;;;6.20;2.47;;;23.30;53.60;;;;;;6248264;28;20056;-69
2021/06/12 14:53:59;;;;;;;7.35;1.95;;;23.30;53.30;;;;;;6238184;28;20030;-70
2021/06/12 14:57:00;;;;;;;5.07;1.90;;;23.30;53.10;;;;;;6256095;28;20179;-70
2021/06/12 15:00:00;;;;;;;6.80;2.05;;;23.30;52.40;;;;;;6254384;28;20100;-69
2021/06/12 15:03:01;;;;;;;6.65;2.13;;;23.30;52.50;;;;;;6230404;28;20034;-69
2021/06/12 15:06:02;;;;;;;13.55;2.00;;;23.30;52.30;;;;;;6235392;28;20400;-69
2021/06/12 15:09:03;;;;;;;8.60;2.13;;;23.30;51.30;;;;;;6262292;28;20021;-69
2021/06/12 15:12:04;;;;;;;12.02;2.75;;;23.30;50.90;;;;;;6261241;28;20030;-70
2021/06/12 15:15:05;;;;;;;3.88;1.80;;;23.30;50.30;;;;;;6256872;28;20423;-69
2021/06/12 15:18:06;;;;;;;7.00;2.47;;;23.30;50.30;;;;;;6249426;28;20377;-69
2021/06/12 15:21:07;;;;;;;10.35;2.13;;;23.30;49.90;;;;;;6257491;28;20021;-69
2021/06/12 15:24:07;;;;;;;6.93;2.40;;;23.30;50.00;;;;;;6246847;28;20032;-69
2021/06/12 15:27:08;;;;;;;8.38;2.05;;;23.30;49.60;;;;;;6248242;28;20088;-70
2021/06/12 15:30:09;;;;;;;8.40;2.17;;;23.30;49.50;;;;;;6247151;28;20317;-69
2021/06/12 15:33:13;;;;;;;8.63;2.40;;;23.30;49.40;;;;;;6246738;28;20582;-70
2021/06/12 15:36:13;;;;;;;9.02;2.00;;;23.30;49.30;;;;;;6261170;28;20480;-69
2021/06/12 15:39:14;;;;;;;5.82;1.98;;;23.30;49.00;;;;;;6247786;28;20171;-69
2021/06/12 15:42:16;;;;;;;4.38;1.77;;;23.30;51.20;;;;;;6251278;28;20501;-70
2021/06/12 15:45:16;;;;;;;4.30;1.70;;;23.30;51.20;;;;;;6247144;28;20033;-69
2021/06/12 15:48:17;;;;;;;3.80;1.55;;;23.40;51.60;;;;;;6256709;28;20619;-69
2021/06/12 15:51:17;;;;;;;5.47;1.98;;;23.40;51.80;;;;;;6238769;28;20100;-69